Decoded Metar for SCVM ( in ) (IATA:) | Meteo·Mobile Aviation Weather
aviador You're here:

SCVM Decoded Metar

in
Report Time2019-01-19 16:00:00
UTC Time2019-01-19 16:23:01
Flight Rules mvfr MVFR
Wind340° at 11 kt
W.Decomp.*RWY 05: 3.8 kt HW 10.3 kt LCW
W.Rank340° ranks 4
Current wind is above 340° avg. (7.3)
Visibility9999 m
Phenomena:N/A
Clouds:Broken 022 Hf
Expected CloudBase > 1,600 ft AGL from Temp-Dew spread
Ceiling2,200 ft
Temp19°C
Dew Point15°C (78% RH)
AAT16.7°C
QNH1017 hPa
Raw Report
METAR SCVM 191600Z 34011KT 9999 BKN022 19/15 Q1017=

Extra information for SCVM:More info

Social comments